createdAt,value
2017-07-27T00:00:35.005Z,8.10
2017-07-27T00:03:02.453Z,8.87
2017-07-27T00:05:29.913Z,6.10
2017-07-27T00:07:57.431Z,7.70
2017-07-27T00:10:24.873Z,5.70
2017-07-27T00:12:52.353Z,9.37
2017-07-27T00:15:19.800Z,8.20
2017-07-27T00:17:47.272Z,7.47
2017-07-27T00:20:14.718Z,7.83
2017-07-27T00:22:42.169Z,7.90
2017-07-27T00:25:09.628Z,7.80
2017-07-27T00:27:37.071Z,6.60
2017-07-27T00:30:04.538Z,8.93
2017-07-27T00:32:32.013Z,8.40
2017-07-27T00:34:59.465Z,9.63
2017-07-27T00:37:26.932Z,8.80
2017-07-27T00:39:54.386Z,10.80
2017-07-27T00:42:22.057Z,8.93
2017-07-27T00:44:49.501Z,7.20
2017-07-27T00:47:16.946Z,7.40
2017-07-27T00:49:44.737Z,7.80
2017-07-27T00:52:12.192Z,8.73
2017-07-27T00:54:39.641Z,8.43
2017-07-27T00:57:07.105Z,7.33
2017-07-27T00:59:34.552Z,8.80
2017-07-27T01:02:01.997Z,6.80
2017-07-27T01:04:29.460Z,4.57
2017-07-27T01:06:56.920Z,7.07
2017-07-27T01:09:24.402Z,5.23
2017-07-27T01:11:51.853Z,4.83
2017-07-27T01:14:19.301Z,4.60
2017-07-27T01:16:46.761Z,5.33
2017-07-27T01:19:14.206Z,5.00
2017-07-27T01:21:41.672Z,5.50
2017-07-27T01:24:09.125Z,5.40
2017-07-27T01:26:36.937Z,4.57
2017-07-27T01:29:04.371Z,5.07
2017-07-27T01:31:31.821Z,5.10
2017-07-27T01:33:59.285Z,5.50
2017-07-27T01:36:26.732Z,6.90
2017-07-27T01:38:54.558Z,5.60
2017-07-27T01:41:22.013Z,5.53
2017-07-27T01:43:49.468Z,3.80
2017-07-27T01:46:16.941Z,3.87
2017-07-27T01:48:44.393Z,3.40
2017-07-27T01:51:12.169Z,4.37
2017-07-27T01:53:39.625Z,4.30
2017-07-27T01:56:07.384Z,4.70
2017-07-27T01:58:34.833Z,3.87
2017-07-27T02:01:02.289Z,4.33
2017-07-27T02:03:29.758Z,2.73
2017-07-27T02:05:57.218Z,3.40
2017-07-27T02:08:24.680Z,2.80
2017-07-27T02:10:52.129Z,4.20
2017-07-27T02:13:19.605Z,3.50
2017-07-27T02:15:47.047Z,3.20
2017-07-27T02:18:14.528Z,4.07
2017-07-27T02:20:41.994Z,4.17
2017-07-27T02:23:09.441Z,3.93
2017-07-27T02:25:37.210Z,3.53
2017-07-27T02:28:04.739Z,4.03
2017-07-27T02:30:32.193Z,3.90
2017-07-27T02:32:59.665Z,3.50
2017-07-27T02:35:27.114Z,2.83
2017-07-27T02:37:54.579Z,2.57
2017-07-27T02:40:22.025Z,2.17
2017-07-27T02:42:49.494Z,3.30
2017-07-27T02:45:17.194Z,2.60
2017-07-27T02:47:44.649Z,1.97
2017-07-27T02:50:12.098Z,3.00
2017-07-27T02:52:39.881Z,3.77
2017-07-27T02:55:07.325Z,3.93
2017-07-27T02:57:34.765Z,3.67
2017-07-27T03:00:02.253Z,2.50
2017-07-27T03:02:29.709Z,3.80
2017-07-27T03:04:57.161Z,4.37
2017-07-27T03:07:24.632Z,2.53
2017-07-27T03:09:52.074Z,2.73
2017-07-27T03:12:19.517Z,2.67
2017-07-27T03:14:46.986Z,2.87
2017-07-27T03:17:14.441Z,3.33
2017-07-27T03:19:41.904Z,3.40
2017-07-27T03:22:09.351Z,3.23
2017-07-27T03:24:36.817Z,3.40
2017-07-27T03:27:04.631Z,3.67
2017-07-27T03:29:32.074Z,4.30
2017-07-27T03:31:59.518Z,2.53
2017-07-27T03:34:26.980Z,3.93
2017-07-27T03:36:54.464Z,3.87
2017-07-27T03:39:22.244Z,4.60
2017-07-27T03:41:49.684Z,5.60
2017-07-27T03:44:17.136Z,6.10
2017-07-27T03:46:44.598Z,3.53
2017-07-27T03:49:12.076Z,6.17
2017-07-27T03:51:39.552Z,4.80
2017-07-27T03:54:06.997Z,4.90
2017-07-27T03:56:34.440Z,4.57
2017-07-27T03:59:01.908Z,6.00
2017-07-27T04:01:29.356Z,5.33
2017-07-27T04:03:56.818Z,5.00
2017-07-27T04:06:24.270Z,6.57
2017-07-27T04:08:51.714Z,4.30
2017-07-27T04:11:19.184Z,4.23
2017-07-27T04:13:46.673Z,6.43
2017-07-27T04:16:14.162Z,5.30
2017-07-27T04:18:41.613Z,6.23
2017-07-27T04:21:09.078Z,4.97
2017-07-27T04:23:36.541Z,4.40
2017-07-27T04:26:03.993Z,5.10
2017-07-27T04:28:31.470Z,4.23
2017-07-27T04:30:58.953Z,5.83
2017-07-27T04:33:26.433Z,5.83
2017-07-27T04:35:53.873Z,7.00
2017-07-27T04:38:21.324Z,8.17
2017-07-27T04:40:48.969Z,5.80
2017-07-27T04:43:16.429Z,8.30
2017-07-27T04:45:43.893Z,8.50
2017-07-27T04:48:11.332Z,9.50
2017-07-27T04:50:38.813Z,9.43
2017-07-27T04:53:06.257Z,8.50
2017-07-27T04:55:33.709Z,10.13
2017-07-27T04:58:01.192Z,10.77
2017-07-27T05:00:28.732Z,11.13
2017-07-27T05:02:56.193Z,10.90
2017-07-27T05:05:23.690Z,10.87
2017-07-27T05:07:51.146Z,11.03
2017-07-27T05:10:18.625Z,11.30
2017-07-27T05:12:46.069Z,9.73
2017-07-27T05:15:13.546Z,10.40
2017-07-27T05:17:40.993Z,9.87
2017-07-27T05:20:08.449Z,8.90
2017-07-27T05:22:35.921Z,9.10
2017-07-27T05:25:03.396Z,10.37
2017-07-27T05:27:30.868Z,9.50
2017-07-27T05:29:58.348Z,10.90
2017-07-27T05:32:25.822Z,9.00
2017-07-27T05:34:53.273Z,9.57
2017-07-27T05:37:20.756Z,9.67
2017-07-27T05:39:48.213Z,10.50
2017-07-27T05:42:15.710Z,9.73
2017-07-27T05:44:43.152Z,8.47
2017-07-27T05:47:10.613Z,8.93
2017-07-27T05:49:38.082Z,9.97
2017-07-27T05:52:05.684Z,10.27
2017-07-27T05:54:33.133Z,9.80
2017-07-27T05:57:00.584Z,7.20
2017-07-27T05:59:28.685Z,8.20
2017-07-27T06:01:56.138Z,8.53
2017-07-27T06:04:23.588Z,8.60
2017-07-27T06:06:51.057Z,8.70
2017-07-27T06:09:18.500Z,10.10
2017-07-27T06:11:45.966Z,8.40
2017-07-27T06:14:13.438Z,9.60
2017-07-27T06:16:41.553Z,8.57
2017-07-27T06:19:09.049Z,9.20
2017-07-27T06:21:36.545Z,10.13
2017-07-27T06:24:03.998Z,9.50
2017-07-27T06:26:31.532Z,11.23
2017-07-27T06:28:59.016Z,10.33
2017-07-27T06:31:26.468Z,8.23
2017-07-27T06:33:53.908Z,7.70
2017-07-27T06:36:21.377Z,8.80
2017-07-27T06:38:48.837Z,7.00
2017-07-27T06:41:16.301Z,7.93
2017-07-27T06:43:43.744Z,8.37
2017-07-27T06:46:11.213Z,7.33
2017-07-27T06:48:38.652Z,7.67
2017-07-27T06:51:06.120Z,7.27
2017-07-27T06:53:33.825Z,6.30
2017-07-27T06:56:01.268Z,7.77
2017-07-27T06:58:29.017Z,7.30
2017-07-27T07:00:56.466Z,6.77
2017-07-27T07:03:23.916Z,6.40
2017-07-27T07:05:51.625Z,6.83
2017-07-27T07:08:19.073Z,7.37
2017-07-27T07:10:46.517Z,5.63
2017-07-27T07:13:13.988Z,7.40
2017-07-27T07:15:41.430Z,6.40
2017-07-27T07:18:08.904Z,7.03
2017-07-27T07:20:36.349Z,6.27
2017-07-27T07:23:03.800Z,6.77
2017-07-27T07:25:31.274Z,6.83
2017-07-27T07:27:58.757Z,6.40
2017-07-27T07:30:26.225Z,6.43
2017-07-27T07:32:53.668Z,5.40
2017-07-27T07:35:21.141Z,6.30
2017-07-27T07:37:48.585Z,7.20
2017-07-27T07:40:16.069Z,6.50
2017-07-27T07:42:43.513Z,7.20
2017-07-27T07:45:10.965Z,7.00
2017-07-27T07:47:38.428Z,6.47
2017-07-27T07:50:05.872Z,5.60
2017-07-27T07:52:33.352Z,6.93
2017-07-27T07:55:00.789Z,6.17
2017-07-27T07:57:28.238Z,7.47
2017-07-27T07:59:55.702Z,5.60
2017-07-27T08:02:23.158Z,7.10
2017-07-27T08:04:50.626Z,6.73
2017-07-27T08:07:18.434Z,7.00
2017-07-27T08:09:57.929Z,6.50
2017-07-27T08:12:25.413Z,6.27
2017-07-27T08:14:52.868Z,5.23
2017-07-27T08:17:20.311Z,6.20
2017-07-27T08:19:47.781Z,6.57
2017-07-27T08:22:15.228Z,5.43
2017-07-27T08:24:42.706Z,5.77
2017-07-27T08:27:10.404Z,6.23
2017-07-27T08:29:37.850Z,6.60
2017-07-27T08:32:05.297Z,7.33
2017-07-27T08:34:32.877Z,6.10
2017-07-27T08:37:00.545Z,7.00
2017-07-27T08:39:27.989Z,6.97
2017-07-27T08:41:55.436Z,6.00
2017-07-27T08:44:22.920Z,6.60
2017-07-27T08:46:50.373Z,5.40
2017-07-27T08:49:17.846Z,6.20
2017-07-27T08:51:45.291Z,5.27
2017-07-27T08:54:12.752Z,4.50
2017-07-27T08:56:40.191Z,4.13
2017-07-27T08:59:07.643Z,4.53
2017-07-27T09:01:35.125Z,4.93
2017-07-27T09:04:02.574Z,4.67
2017-07-27T09:06:30.023Z,5.30
2017-07-27T09:08:57.498Z,4.97
2017-07-27T09:11:25.310Z,4.30
2017-07-27T09:13:52.753Z,5.20
2017-07-27T09:16:20.205Z,4.10
2017-07-27T09:18:47.671Z,4.30
2017-07-27T09:21:15.115Z,4.90
2017-07-27T09:23:42.602Z,3.73
2017-07-27T09:26:10.050Z,3.57
2017-07-27T09:28:37.496Z,3.80
2017-07-27T09:31:04.961Z,5.00
2017-07-27T09:33:32.424Z,4.37
2017-07-27T09:35:59.889Z,4.33
2017-07-27T09:38:27.329Z,4.03
2017-07-27T09:40:55.112Z,5.10
2017-07-27T09:43:22.561Z,4.40
2017-07-27T09:45:50.006Z,4.37
2017-07-27T09:48:17.481Z,4.13
2017-07-27T09:50:44.916Z,3.77
2017-07-27T09:53:12.356Z,3.70
2017-07-27T09:55:39.832Z,3.60
2017-07-27T09:58:07.641Z,4.40
2017-07-27T10:00:35.085Z,4.00
2017-07-27T10:03:02.529Z,3.63
2017-07-27T10:05:30.006Z,3.40
2017-07-27T10:07:57.445Z,3.80
2017-07-27T10:10:25.254Z,4.43
2017-07-27T10:12:52.711Z,3.33
2017-07-27T10:15:20.154Z,3.77
2017-07-27T10:17:47.621Z,4.17
2017-07-27T10:20:15.065Z,4.00
2017-07-27T10:22:42.524Z,3.10
2017-07-27T10:25:09.974Z,3.57
2017-07-27T10:27:37.450Z,3.60
2017-07-27T10:30:04.899Z,4.37
2017-07-27T10:32:32.352Z,4.33
2017-07-27T10:34:59.821Z,3.90
2017-07-27T10:37:27.272Z,3.20
2017-07-27T10:39:54.752Z,3.03
2017-07-27T10:42:22.188Z,3.40
2017-07-27T10:44:49.639Z,2.43
2017-07-27T10:47:17.110Z,3.43
2017-07-27T10:49:44.677Z,2.97
2017-07-27T10:52:12.119Z,3.57
2017-07-27T10:54:39.565Z,3.10
2017-07-27T10:57:07.045Z,3.50
2017-07-27T10:59:34.493Z,3.80
2017-07-27T11:02:01.982Z,3.00
2017-07-27T11:04:29.427Z,3.67
2017-07-27T11:06:56.892Z,3.43
2017-07-27T11:09:24.354Z,3.20
2017-07-27T11:11:51.806Z,2.77
2017-07-27T11:14:19.269Z,3.33
2017-07-27T11:16:46.749Z,3.70
2017-07-27T11:19:14.188Z,3.93
2017-07-27T11:21:41.644Z,4.60
2017-07-27T11:24:09.114Z,3.00
2017-07-27T11:26:36.575Z,3.37
2017-07-27T11:29:04.041Z,2.90
2017-07-27T11:31:31.509Z,2.70
2017-07-27T11:33:58.981Z,1.60
2017-07-27T11:36:26.434Z,2.17
2017-07-27T11:38:53.878Z,2.73
2017-07-27T11:41:21.336Z,2.90
2017-07-27T11:43:48.789Z,2.70
2017-07-27T11:46:16.253Z,2.80
2017-07-27T11:48:43.706Z,3.10
2017-07-27T11:51:11.418Z,3.23
2017-07-27T11:53:38.866Z,2.97
2017-07-27T11:56:06.309Z,3.07
2017-07-27T11:58:33.776Z,3.03
2017-07-27T12:01:01.220Z,2.53
2017-07-27T12:03:28.686Z,2.70
2017-07-27T12:05:56.129Z,1.97
2017-07-27T12:08:23.602Z,2.90
2017-07-27T12:10:51.047Z,2.50
2017-07-27T12:13:18.509Z,2.30
2017-07-27T12:15:45.962Z,2.60
2017-07-27T12:18:13.413Z,2.00
2017-07-27T12:20:40.883Z,2.90
2017-07-27T12:23:08.350Z,2.60
2017-07-27T12:25:35.806Z,3.90
2017-07-27T12:28:03.466Z,2.50
2017-07-27T12:30:30.916Z,2.97
2017-07-27T12:32:58.365Z,2.50
2017-07-27T12:35:25.828Z,2.80
2017-07-27T12:37:53.296Z,2.40
2017-07-27T12:40:20.782Z,2.43
2017-07-27T12:42:48.235Z,2.13
2017-07-27T12:45:15.710Z,2.97
2017-07-27T12:47:43.177Z,2.60
2017-07-27T12:50:10.612Z,3.17
2017-07-27T12:52:38.541Z,2.40
2017-07-27T12:55:06.001Z,3.00
2017-07-27T12:57:33.476Z,2.67
2017-07-27T13:00:00.942Z,2.37
2017-07-27T13:02:28.407Z,2.60
2017-07-27T13:04:55.881Z,2.67
2017-07-27T13:07:23.326Z,3.40
2017-07-27T13:09:50.796Z,2.93
2017-07-27T13:12:18.258Z,2.80
2017-07-27T13:14:45.834Z,2.37
2017-07-27T13:17:13.283Z,2.80
2017-07-27T13:19:40.743Z,2.57
2017-07-27T13:22:08.223Z,2.70
2017-07-27T13:24:35.685Z,2.10
2017-07-27T13:27:03.125Z,2.03
2017-07-27T13:29:30.593Z,2.93
2017-07-27T13:31:58.068Z,2.60
2017-07-27T13:34:25.517Z,3.00
2017-07-27T13:36:52.963Z,2.50
2017-07-27T13:39:20.436Z,2.57
2017-07-27T13:41:47.883Z,2.37
2017-07-27T13:44:15.353Z,3.00
2017-07-27T13:46:42.806Z,2.50
2017-07-27T13:49:10.284Z,2.70
2017-07-27T13:51:37.761Z,3.40
2017-07-27T13:54:05.219Z,2.90
2017-07-27T13:56:32.683Z,2.80
2017-07-27T13:59:00.128Z,2.67
2017-07-27T14:01:27.604Z,3.23
2017-07-27T14:03:55.237Z,2.50
2017-07-27T14:06:22.683Z,2.30
2017-07-27T14:08:50.164Z,2.87
2017-07-27T14:11:17.606Z,2.87
2017-07-27T14:13:45.048Z,2.43
2017-07-27T14:16:12.529Z,2.63
2017-07-27T14:18:39.974Z,4.03
2017-07-27T14:21:07.704Z,2.10
2017-07-27T14:23:35.150Z,2.70
2017-07-27T14:26:02.598Z,3.20
2017-07-27T14:28:30.134Z,3.60
2017-07-27T14:30:57.575Z,2.40
2017-07-27T14:33:25.049Z,3.30
2017-07-27T14:35:52.535Z,3.90
2017-07-27T14:38:19.977Z,3.10
2017-07-27T14:40:47.422Z,3.20
2017-07-27T14:43:14.907Z,3.30
2017-07-27T14:45:42.390Z,3.37
2017-07-27T14:48:09.832Z,3.40
2017-07-27T14:50:37.297Z,4.30
2017-07-27T14:53:04.743Z,2.10
2017-07-27T14:55:32.373Z,2.57
2017-07-27T14:57:59.813Z,2.87
2017-07-27T15:00:27.269Z,2.40
2017-07-27T15:02:54.798Z,2.10
2017-07-27T15:05:22.245Z,2.60
2017-07-27T15:07:49.708Z,2.50
2017-07-27T15:10:17.175Z,2.53
2017-07-27T15:12:44.617Z,1.60
2017-07-27T15:15:12.184Z,1.63
2017-07-27T15:17:39.639Z,1.93
2017-07-27T15:20:07.406Z,1.77
2017-07-27T15:22:34.872Z,2.20
2017-07-27T15:25:02.329Z,1.37
2017-07-27T15:27:29.994Z,2.07
2017-07-27T15:29:57.453Z,2.03
2017-07-27T15:32:24.941Z,2.33
2017-07-27T15:34:52.380Z,1.77
2017-07-27T15:37:19.835Z,1.20
2017-07-27T15:39:47.297Z,2.40
2017-07-27T15:42:15.109Z,1.07
2017-07-27T15:44:42.548Z,1.03
2017-07-27T15:47:09.990Z,1.03
2017-07-27T15:49:37.470Z,1.00
2017-07-27T15:52:04.929Z,1.90
2017-07-27T15:54:32.410Z,0.97
2017-07-27T15:56:59.894Z,0.90
2017-07-27T15:59:27.356Z,0.90
2017-07-27T16:01:54.861Z,1.13
2017-07-27T16:04:22.310Z,0.80
2017-07-27T16:06:49.760Z,1.00
2017-07-27T16:09:17.232Z,0.70
2017-07-27T16:11:44.675Z,0.77
2017-07-27T16:14:12.148Z,0.90
2017-07-27T16:16:39.588Z,1.00
2017-07-27T16:19:07.058Z,1.20
2017-07-27T16:21:34.510Z,0.63
2017-07-27T16:24:01.981Z,0.93
2017-07-27T16:26:29.464Z,1.13
2017-07-27T16:28:56.936Z,0.90
2017-07-27T16:31:24.389Z,0.80
2017-07-27T16:33:51.861Z,2.53
2017-07-27T16:36:19.321Z,1.17
2017-07-27T16:38:47.046Z,1.00
2017-07-27T16:41:14.505Z,1.00
2017-07-27T16:43:41.977Z,0.90
2017-07-27T16:46:09.932Z,1.17
2017-07-27T16:48:37.422Z,0.80
2017-07-27T16:51:04.872Z,1.40
2017-07-27T16:53:32.359Z,1.07
2017-07-27T16:55:59.817Z,1.00
2017-07-27T16:58:27.268Z,1.73
2017-07-27T17:00:54.749Z,1.20
2017-07-27T17:03:22.950Z,1.20
2017-07-27T17:05:51.141Z,1.37
2017-07-27T17:08:18.613Z,0.90
2017-07-27T17:10:46.057Z,1.00
2017-07-27T17:13:13.704Z,0.97
2017-07-27T17:15:42.022Z,0.87
2017-07-27T17:18:09.592Z,0.83
2017-07-27T17:20:37.069Z,0.93
2017-07-27T17:23:04.688Z,1.00
2017-07-27T17:25:33.216Z,1.00
2017-07-27T17:28:00.689Z,0.80
2017-07-27T17:30:28.136Z,0.70
2017-07-27T17:32:55.593Z,0.97
2017-07-27T17:35:24.538Z,0.90
2017-07-27T17:37:52.161Z,0.80
2017-07-27T17:40:19.958Z,1.10
2017-07-27T17:42:47.434Z,1.27
2017-07-27T17:47:52.727Z,0.80
2017-07-27T17:50:21.205Z,1.40
2017-07-27T17:52:48.914Z,1.30
2017-07-27T17:55:16.748Z,1.00
2017-07-27T17:57:44.198Z,1.67
2017-07-27T18:00:12.781Z,1.40
2017-07-27T18:02:40.248Z,1.30
2017-07-27T18:05:07.712Z,1.20
2017-07-27T18:07:35.711Z,0.97
2017-07-27T18:10:03.837Z,1.00
2017-07-27T18:12:32.276Z,1.07
2017-07-27T18:14:59.733Z,1.10
2017-07-27T18:17:27.172Z,1.40
2017-07-27T18:19:55.169Z,1.13
2017-07-27T18:22:22.613Z,0.67
2017-07-27T18:24:50.103Z,1.20
2017-07-27T18:27:17.549Z,1.00
2017-07-27T18:29:44.999Z,1.03
2017-07-27T18:32:12.497Z,0.90
2017-07-27T18:34:39.949Z,1.37
2017-07-27T18:37:08.486Z,1.00
2017-07-27T18:39:36.237Z,1.10
2017-07-27T18:42:03.989Z,0.80
2017-07-27T18:44:31.449Z,1.03
2017-07-27T18:46:59.961Z,1.23
2017-07-27T18:49:28.845Z,1.00
2017-07-27T18:51:56.329Z,1.10
2017-07-27T18:54:23.777Z,1.70
2017-07-27T18:56:51.537Z,1.03
2017-07-27T18:59:19.810Z,1.03
2017-07-27T19:01:47.372Z,1.53
2017-07-27T19:04:15.147Z,1.73
2017-07-27T19:06:42.601Z,1.33
2017-07-27T19:09:11.043Z,1.50
2017-07-27T19:11:39.775Z,1.33
2017-07-27T19:14:07.301Z,2.10
2017-07-27T19:16:34.750Z,1.33
2017-07-27T19:19:02.231Z,1.10
2017-07-27T19:21:29.711Z,2.80
2017-07-27T19:23:57.444Z,1.80
2017-07-27T19:26:25.045Z,1.20
2017-07-27T19:28:53.597Z,1.80
2017-07-27T19:31:21.076Z,1.30
2017-07-27T19:33:48.523Z,1.40
2017-07-27T19:36:16.821Z,2.00
2017-07-27T19:38:44.294Z,1.97
2017-07-27T19:41:11.746Z,1.40
2017-07-27T19:43:39.216Z,1.47
2017-07-27T19:46:07.432Z,1.40
2017-07-27T19:48:35.781Z,1.70
2017-07-27T19:51:03.266Z,1.97
2017-07-27T19:53:30.721Z,1.90
2017-07-27T19:55:58.738Z,1.83
2017-07-27T19:58:26.204Z,2.03
2017-07-27T20:00:53.644Z,2.00
2017-07-27T20:03:21.088Z,2.67
2017-07-27T20:05:49.611Z,4.93
2017-07-27T20:08:17.087Z,2.73
2017-07-27T20:10:44.806Z,2.07
2017-07-27T20:13:12.376Z,2.13
2017-07-27T20:15:39.831Z,2.80
2017-07-27T20:18:07.293Z,1.80
2017-07-27T20:20:34.950Z,18.77
2017-07-27T20:23:02.421Z,5.90
2017-07-27T20:25:29.860Z,2.60
2017-07-27T20:27:57.337Z,2.00
2017-07-27T20:30:24.942Z,2.17
2017-07-27T20:32:52.407Z,2.93
2017-07-27T20:35:19.864Z,13.33
2017-07-27T20:37:48.219Z,2.63
2017-07-27T20:40:15.674Z,2.27
2017-07-27T20:42:43.122Z,2.80
2017-07-27T20:45:10.593Z,2.80
2017-07-27T20:47:38.036Z,2.80
2017-07-27T20:50:05.504Z,3.00
2017-07-27T20:52:32.959Z,3.27
2017-07-27T20:55:00.444Z,2.83
2017-07-27T20:57:28.054Z,2.90
2017-07-27T20:59:55.496Z,2.73
2017-07-27T21:02:23.854Z,3.57
2017-07-27T21:04:51.324Z,2.17
2017-07-27T21:07:18.774Z,2.43
2017-07-27T21:09:46.405Z,2.03
2017-07-27T21:12:13.861Z,2.43
2017-07-27T21:14:41.309Z,3.90
2017-07-27T21:17:08.782Z,3.00
2017-07-27T21:19:36.253Z,2.70
2017-07-27T21:22:03.721Z,4.20
2017-07-27T21:24:31.189Z,2.93
2017-07-27T21:26:58.669Z,2.50
2017-07-27T21:29:26.141Z,3.10
2017-07-27T21:31:53.598Z,2.13
2017-07-27T21:34:21.089Z,2.50
2017-07-27T21:36:48.537Z,2.67
2017-07-27T21:39:16.113Z,2.73
2017-07-27T21:41:43.557Z,3.30
2017-07-27T21:44:11.006Z,3.10
2017-07-27T21:46:38.477Z,2.90
2017-07-27T21:49:05.938Z,2.50
2017-07-27T21:51:33.733Z,3.07
2017-07-27T21:54:01.181Z,2.10
2017-07-27T21:56:28.633Z,2.67
2017-07-27T21:58:56.410Z,2.90
2017-07-27T22:01:23.875Z,3.60
2017-07-27T22:03:51.340Z,2.80
2017-07-27T22:06:18.808Z,2.10
2017-07-27T22:08:46.568Z,2.40
2017-07-27T22:11:14.021Z,2.60
2017-07-27T22:13:41.457Z,2.93
2017-07-27T22:16:09.245Z,2.60
2017-07-27T22:18:36.686Z,2.60
2017-07-27T22:21:04.144Z,3.20
2017-07-27T22:23:31.615Z,3.00
2017-07-27T22:25:59.057Z,2.53
2017-07-27T22:28:26.520Z,2.27
2017-07-27T22:30:53.992Z,2.23
2017-07-27T22:33:21.433Z,2.30
2017-07-27T22:35:48.877Z,2.03
2017-07-27T22:38:16.337Z,2.23
2017-07-27T22:40:43.800Z,2.70
2017-07-27T22:43:11.258Z,1.90
2017-07-27T22:45:38.732Z,2.30
2017-07-27T22:48:06.544Z,1.63
2017-07-27T22:50:33.988Z,2.27
2017-07-27T22:53:01.434Z,2.10
2017-07-27T22:55:28.901Z,2.60
2017-07-27T22:57:56.352Z,2.00
2017-07-27T23:00:23.817Z,3.03
2017-07-27T23:02:51.273Z,2.47
2017-07-27T23:05:19.060Z,2.53
2017-07-27T23:07:46.505Z,2.30
2017-07-27T23:10:13.966Z,2.23
2017-07-27T23:12:41.434Z,2.33
2017-07-27T23:15:08.902Z,2.07
2017-07-27T23:17:36.352Z,2.47
2017-07-27T23:20:03.806Z,2.63
2017-07-27T23:22:31.289Z,2.90
2017-07-27T23:24:58.732Z,2.93
2017-07-27T23:27:26.177Z,3.57
2017-07-27T23:29:53.640Z,3.30
2017-07-27T23:32:21.110Z,3.27
2017-07-27T23:34:48.581Z,3.83
2017-07-27T23:37:16.028Z,3.80
2017-07-27T23:39:43.477Z,3.83
2017-07-27T23:42:10.942Z,3.77
2017-07-27T23:44:38.414Z,2.83
2017-07-27T23:47:05.886Z,4.13
2017-07-27T23:49:33.349Z,3.20
2017-07-27T23:52:00.809Z,3.60
2017-07-27T23:54:28.265Z,3.63
2017-07-27T23:56:55.732Z,3.60
2017-07-27T23:59:23.178Z,3.20
